• Join FlightAware (Why Join?)
  • Login
  • US Flag 
08:46AM EDT


 

Airport Tracker/Info


-or-


 

Live Flight TrackerFlight Track Log ✈ UPS37 ✈ 11-May-2014 ✈ YSSY / SYD - ZGSZ / SZX

Flight Track Log - Related Links

Times and Time Zones

All times are in EDT time to prevent confusion due to time zone crossing. See the UPS37 flight status page for this flight to view local times or setup timezone preferences in your user account.

Time Position Orientation Groundspeed Altitude Reporting Facility
EDT Latitude Longitude Course Direction KTS MPH feet Rate Location/Type
04:34AM -33.9318 151.1678 259° West  Level FlightAware ADS-B (YRAY)
04:46AM -33.9483 151.1765 167° South 170 196 60 Level FlightAware ADS-B (YRAY)
04:46AM -33.9584 151.1792 168° South 155 178 900 3,120 Climbing FlightAware ADS-B (YSBK / BWU)
04:47AM -33.9731 151.1825 175° South 158 182 2,000 3,480 Climbing FlightAware ADS-B (YSBK / BWU)
04:47AM -33.9786 151.1823 183° South 154 177 2,300 3,000 Climbing FlightAware ADS-B (YPLB)
04:47AM -33.9867 151.1812 187° South 157 181 3,000 1,860 Climbing FlightAware ADS-B (YSBK / BWU)
04:47AM -34.0058 151.1778 188° South 196 226 3,400 1,260 Climbing FlightAware ADS-B (YRAY)
04:48AM -34.0151 151.1765 187° South 212 244 3,600 1,380 Climbing FlightAware ADS-B (YRAY)
04:48AM -33.9998 151.1789 179° South 239 275 3,900 2,460 Climbing FlightAware ADS-B (YSBK / BWU)
04:48AM -34.0491 151.1820 163° South 265 305 4,800 3,300 Climbing FlightAware ADS-B (YPLB)
04:48AM -34.0600 151.1858 163° South 268 308 5,400 3,420 Climbing FlightAware ADS-B (YPLB)
04:48AM -34.0721 151.1898 164° South 273 314 6,000 3,660 Climbing FlightAware ADS-B (YPLB)
04:49AM -34.0770 151.1913 165° South 275 316 6,700 4,200 Climbing FlightAware ADS-B (YPLB)
04:49AM -34.1103 151.2016 165° South 267 307 8,100 3,960 Climbing FlightAware ADS-B (YRAY)
04:49AM -34.1149 151.2030 165° South 269 310 8,300 3,060 Climbing FlightAware ADS-B (YRAY)
04:49AM -34.1492 151.2010 203° Southwest 281 323 9,700 3,120 Climbing FlightAware ADS-B (YRAY)
04:50AM -34.1595 151.1927 218° Southwest 293 337 10,200 2,280 Climbing FlightAware ADS-B (YRAY)
04:50AM -34.1460 151.2027 201° Southwest 288 331 10,400 3,120 Climbing FlightAware ADS-B (YRPA)
04:50AM -34.1770 151.1556 261° West 315 362 11,500 3,840 Climbing FlightAware ADS-B (YRAY)
04:50AM -34.1747 151.1310 290° West 325 374 12,400 3,600 Climbing FlightAware ADS-B (YRAY)
04:50AM -34.1662 151.1139 310° West 333 383 13,000 3,120 Climbing FlightAware ADS-B (YPLB)
04:51AM -34.1557 151.1026 326° Northwest 336 387 13,400 2,820 Climbing FlightAware ADS-B (YRAY)
04:51AM -34.1459 151.0952 329° Northwest 340 391 13,800 1,500 Climbing FlightAware ADS-B (YRAY)
04:51AM -34.0980 151.0632 330° Northwest 393 452 14,400 1,200 Climbing FlightAware ADS-B (YPLB)
04:51AM -34.0821 151.0520 329° Northwest 402 463 14,600 2,340 Climbing FlightAware ADS-B (YPLB)
04:52AM -34.0326 151.0148 327° Northwest 416 479 16,000 2,760 Climbing FlightAware ADS-B (YRAY)
04:52AM -34.0153 151.0012 326° Northwest 418 481 16,500 2,520 Climbing FlightAware ADS-B (YPLB)
04:53AM -33.9678 150.9679 333° Northwest 431 496 17,800 2,640 Climbing FlightAware ADS-B (YSBK / BWU)
04:53AM -33.9443 150.9547 335° Northwest 426 490 18,400 3,000 Climbing FlightAware ADS-B (YRAY)
04:53AM -33.9148 150.9397 337° Northwest 438 504 19,300 2,940 Climbing FlightAware ADS-B (YSBK / BWU)
04:54AM -33.8328 150.8968 336° Northwest 440 506 21,300 3,060 Climbing FlightAware ADS-B (YPLB)
04:54AM -33.8146 150.8874 336° Northwest 442 509 21,700 2,460 Climbing FlightAware ADS-B (YPLB)
04:54AM -33.7519 150.8555 337° Northwest 450 518 23,100 2,220 Climbing FlightAware ADS-B (YSSY / SYD)
04:55AM -33.6822 150.8200 336° Northwest 459 528 24,300 2,100 Climbing FlightAware ADS-B (YPLB)
04:56AM -33.6231 150.7885 331° Northwest 463 533 25,500 2,100 Climbing FlightAware ADS-B (YRAY)
04:56AM -33.5675 150.7447 326° Northwest 466 536 26,500 1,920 Climbing FlightAware ADS-B (YSSY / SYD)
04:57AM -33.5120 150.7021 327° Northwest 473 544 27,400 2,040 Climbing FlightAware ADS-B (YPLB)
04:57AM -33.4779 150.6762 327° Northwest 475 547 28,100 2,040 Climbing FlightAware ADS-B (YPLB)
04:57AM -33.4347 150.6434 327° Northwest 478 550 28,800 1,980 Climbing FlightAware ADS-B (YPLB)
04:58AM -33.3867 150.6066 327° Northwest 474 545 29,900 2,700 Climbing FlightAware ADS-B (YSBK / BWU)
04:58AM -33.3068 150.5449 327° Northwest 457 526 32,100 2,940 Climbing FlightAware ADS-B (YSSY / SYD)
04:59AM -33.2764 150.5215 327° Northwest 472 543 33,700 1,800 Climbing FlightAware ADS-B (YSSY / SYD)
05:00AM -33.2072 150.4686 327° Northwest 451 519 34,200 1,560 Climbing FlightAware ADS-B (YSBK / BWU)
05:01AM -33.0720 150.3653 327° Northwest 437 503 36,300 1,320 Climbing Aus ATC (RADAR)
05:01AM -33.0202 150.3252 327° Northwest 434 499 36,300 -420 Level Aus ATC (RADAR)
05:01AM -33.2764 150.5215 327° Northwest 443 510 36,000  Descending FlightAware ADS-B (YSSY / SYD)
05:02AM -32.9254 150.2534 327° Northwest 434 499 36,300  Climbing Aus ATC (RADAR)
05:03AM -33.2072 150.4686 327° Northwest 446 513 36,000  Descending FlightAware ADS-B (YSBK / BWU)
05:04AM -32.6917 150.0751 311° West 434 499 36,300 120 Climbing Aus ATC (RADAR)
05:05AM -33.0709 150.2805 311° West  Level FlightAware Approximate
05:05AM -32.6487 150.0428 328° Northwest 432 497 36,300  Level Aus ATC (RADAR)
05:05AM -32.5881 149.9969 327° Northwest 435 501 36,300  Level Aus ATC (RADAR)
05:06AM -32.4924 149.9246 327° Northwest 438 504 36,300  Level Aus ATC (RADAR)
05:07AM -32.4394 149.8855 328° Northwest 440 506 36,300 -300 Level Aus ATC (RADAR)
05:07AM -32.3873 149.8463 327° Northwest 451 519 36,000  Descending FlightAware ADS-B (YRPA)
05:08AM -32.3164 149.7930 327° Northwest 442 509 36,300 120 Climbing Aus ATC (RADAR)
05:09AM -32.2044 149.7088 328° Northwest 451 519 36,300 -180 Level Aus ATC (RADAR)
05:09AM -32.1709 149.6844 327° Northwest 453 521 36,100  Descending FlightAware ADS-B (YRPA)
05:10AM -32.0955 149.6280 327° Northwest 443 510 36,300 -120 Climbing Aus ATC (RADAR)
05:10AM -32.0869 149.6216 328° Northwest 452 520 36,000 1,140 Descending FlightAware ADS-B (YRPA)
05:11AM -31.9482 149.5191 328° Northwest 428 493 37,900 1,260 Climbing Aus ATC (RADAR)
05:12AM -31.8964 149.4802 328° Northwest 433 498 38,200 300 Climbing Aus ATC (RADAR)
05:13AM -31.8088 149.4153 328° Northwest 439 505 38,300 60 Climbing Aus ATC (RADAR)
05:13AM -31.7740 149.3894 328° Northwest 437 503 38,300  Level Aus ATC (RADAR)
05:14AM -31.6270 149.2815 328° Northwest 434 499 38,300  Level Aus ATC (RADAR)
05:15AM -31.5926 149.2558 328° Northwest 434 499 38,300  Level Aus ATC (RADAR)
05:15AM -31.5313 149.2109 328° Northwest 438 504 38,300  Level Aus ATC (RADAR)
05:16AM -31.4373 149.1420 328° Northwest 445 512 38,300  Level Aus ATC (RADAR)
05:17AM -31.3835 149.1019 328° Northwest 434 499 38,300  Level Aus ATC (RADAR)
05:18AM -31.2971 149.0391 328° Northwest 432 497 38,300  Level Aus ATC (RADAR)
05:18AM -31.2627 149.0141 328° Northwest 432 497 38,300  Level Aus ATC (RADAR)
05:19AM -31.1593 148.9391 328° Northwest 432 497 38,300  Level Aus ATC (RADAR)
05:20AM -31.0925 148.8909 328° Northwest 438 504 38,300  Level Aus ATC (RADAR)
05:20AM -31.0558 148.8644 328° Northwest 432 497 38,300  Level Aus ATC (RADAR)
05:20AM -31.0044 148.8270 328° Northwest 430 495 38,300  Level Aus ATC (RADAR)
05:21AM -30.9190 148.7653 328° Northwest 427 491 38,300 60 Level Aus ATC (RADAR)
05:22AM -30.8707 148.7302 328° Northwest 429 494 38,400 60 Climbing Aus ATC (RADAR)
05:22AM -30.8210 148.6943 328° Northwest 424 488 38,400  Level Aus ATC (RADAR)
05:23AM -30.7374 148.6343 328° Northwest 424 488 38,400 -60 Level Aus ATC (RADAR)
05:24AM -30.6430 148.5662 328° Northwest 422 486 38,300  Descending Aus ATC (RADAR)
05:25AM -30.5752 148.5160 327° Northwest 428 493 38,400  Climbing Aus ATC (RADAR)
05:25AM -30.5406 148.4921 329° Northwest 429 494 38,300  Descending Aus ATC (RADAR)
05:26AM -30.4867 148.4574 331° Northwest 436 502 38,400  Climbing Aus ATC (RADAR)
05:26AM -30.3993 148.3912 327° Northwest 445 512 38,300 -120 Descending Aus ATC (RADAR)
05:27AM -30.3468 148.3522 327° Northwest 445 512 38,300  Level Aus ATC (RADAR)
05:27AM -30.2912 148.3130 329° Northwest 451 519 38,300  Level Aus ATC (RADAR)
05:28AM -30.1994 148.2481 329° Northwest 456 525 38,300  Level Aus ATC (RADAR)
05:29AM -30.1066 148.1851 330° Northwest 456 525 38,300  Level Aus ATC (RADAR)
05:30AM -30.0247 148.1290 329° Northwest 454 522 38,300  Level Aus ATC (RADAR)
05:30AM -29.9896 148.1025 327° Northwest 454 522 38,300  Level Aus ATC (RADAR)
05:31AM -29.9401 148.0593 323° Northwest 456 525 38,300  Level Aus ATC (RADAR)
05:31AM -29.8606 147.9888 322° Northwest 442 509 38,300  Level Aus ATC (RADAR)
05:32AM -29.8129 147.9469 323° Northwest 436 502 38,300  Level Aus ATC (RADAR)
05:32AM -29.7659 147.9049 322° Northwest 432 497 38,300  Level Aus ATC (RADAR)
05:33AM -29.6867 147.8351 323° Northwest 427 491 38,300  Level Aus ATC (RADAR)
05:34AM -29.5865 147.7472 323° Northwest 433 498 38,400  Climbing Aus ATC (RADAR)
05:35AM -29.5228 147.6920 323° Northwest 432 497 38,400 -120 Level Aus ATC (RADAR)
05:35AM -29.4864 147.6627 325° Northwest 429 494 38,300 -120 Descending Aus ATC (RADAR)
05:36AM -29.4381 147.6215 323° Northwest 429 494 38,300 60 Level Aus ATC (RADAR)
05:37AM -29.3634 147.5541 322° Northwest 431 496 38,400 60 Climbing Aus ATC (RADAR)
05:37AM -29.3153 147.5126 323° Northwest 432 497 38,400 -180 Level Aus ATC (RADAR)
05:37AM -29.2958 147.4973 326° Northwest 428 493 38,300 -60 Descending Aus ATC (RADAR)
05:39AM -29.1851 147.4023 323° Northwest  Level FlightAware Approximate
05:46AM -28.5280 146.8466 323° Northwest  Level FlightAware Approximate
05:47AM -28.4338 146.7680 324° Northwest  Level FlightAware Approximate
05:48AM -28.3396 146.6894 324° Northwest  Level FlightAware Approximate
05:49AM -28.2454 146.6110 324° Northwest  Level FlightAware Approximate
05:50AM -28.1511 146.5327 324° Northwest  Level FlightAware Approximate
05:51AM -28.0567 146.4546 324° Northwest  Level FlightAware Approximate
05:52AM -27.9624 146.3766 324° Northwest  Level FlightAware Approximate
05:53AM -27.8680 146.2988 324° Northwest  Level FlightAware Approximate
05:54AM -27.7735 146.2211 324° Northwest  Level FlightAware Approximate
05:55AM -27.6790 146.1435 324° Northwest  Level FlightAware Approximate
05:56AM -27.5844 146.0660 324° Northwest  Level FlightAware Approximate
05:57AM -27.4899 145.9887 324° Northwest  Level FlightAware Approximate
05:58AM -27.3952 145.9115 324° Northwest  Level FlightAware Approximate
05:59AM -27.3006 145.8345 324° Northwest  Level FlightAware Approximate
06:00AM -27.2058 145.7576 324° Northwest  Level FlightAware Approximate
06:01AM -27.1111 145.6808 324° Northwest  Level FlightAware Approximate
06:02AM -27.0163 145.6041 324° Northwest  Level FlightAware Approximate
06:03AM -26.9214 145.5276 324° Northwest  Level FlightAware Approximate
06:04AM -26.8265 145.4512 324° Northwest  Level FlightAware Approximate
06:05AM -26.7316 145.3749 324° Northwest  Level FlightAware Approximate
06:06AM -26.6366 145.2988 324° Northwest  Level FlightAware Approximate
06:07AM -26.5416 145.2228 324° Northwest  Level FlightAware Approximate
06:08AM -26.4466 145.1469 324° Northwest  Level FlightAware Approximate
06:09AM -26.3515 145.0711 324° Northwest  Level FlightAware Approximate
06:10AM -26.2564 144.9955 325° Northwest  Level FlightAware Approximate
06:11AM -26.1612 144.9200 325° Northwest  Level FlightAware Approximate
06:12AM -26.0660 144.8446 325° Northwest  Level FlightAware Approximate
06:13AM -25.9707 144.7693 325° Northwest  Level FlightAware Approximate
06:14AM -25.8755 144.6942 325° Northwest  Level FlightAware Approximate
06:15AM -25.7801 144.6192 325° Northwest  Level FlightAware Approximate
06:16AM -25.6848 144.5443 325° Northwest  Level FlightAware Approximate
06:17AM -25.5894 144.4695 325° Northwest  Level FlightAware Approximate
06:18AM -25.4939 144.3948 325° Northwest  Level FlightAware Approximate
06:19AM -25.3984 144.3203 325° Northwest  Level FlightAware Approximate
06:20AM -25.3029 144.2458 325° Northwest  Level FlightAware Approximate
06:21AM -25.2074 144.1715 325° Northwest  Level FlightAware Approximate
06:22AM -25.1118 144.0974 325° Northwest  Level FlightAware Approximate
06:23AM -25.0161 144.0233 325° Northwest  Level FlightAware Approximate
06:24AM -24.9205 143.9493 325° Northwest  Level FlightAware Approximate
06:25AM -24.8248 143.8755 325° Northwest  Level FlightAware Approximate
06:26AM -24.7290 143.8017 325° Northwest  Level FlightAware Approximate
06:27AM -24.6333 143.7281 325° Northwest  Level FlightAware Approximate
06:28AM -24.5375 143.6546 325° Northwest  Level FlightAware Approximate
06:29AM -24.4416 143.5812 325° Northwest  Level FlightAware Approximate
06:30AM -24.3457 143.5079 325° Northwest  Level FlightAware Approximate
06:31AM -24.2498 143.4348 325° Northwest  Level FlightAware Approximate
06:32AM -24.1539 143.3617 325° Northwest  Level FlightAware Approximate
06:33AM -24.0579 143.2888 325° Northwest  Level FlightAware Approximate
06:34AM -23.9618 143.2159 325° Northwest  Level FlightAware Approximate
06:35AM -23.8658 143.1432 325° Northwest  Level FlightAware Approximate
06:36AM -23.7697 143.0706 325° Northwest  Level FlightAware Approximate
06:37AM -23.6736 142.9981 325° Northwest  Level FlightAware Approximate
06:38AM -23.5774 142.9257 325° Northwest  Level FlightAware Approximate
06:39AM -23.4812 142.8534 325° Northwest  Level FlightAware Approximate
06:40AM -23.3850 142.7812 325° Northwest  Level FlightAware Approximate
06:41AM -23.2887 142.7091 325° Northwest  Level FlightAware Approximate
06:42AM -23.1924 142.6371 326° Northwest  Level FlightAware Approximate
06:43AM -23.0961 142.5652 326° Northwest  Level FlightAware Approximate
06:44AM -22.9998 142.4935 326° Northwest  Level FlightAware Approximate
06:45AM -22.9034 142.4218 326° Northwest  Level FlightAware Approximate
06:46AM -22.8069 142.3502 326° Northwest  Level FlightAware Approximate
06:47AM -22.7105 142.2787 326° Northwest  Level FlightAware Approximate
06:48AM -22.6140 142.2074 326° Northwest  Level FlightAware Approximate
06:49AM -22.5175 142.1361 326° Northwest  Level FlightAware Approximate
06:50AM -22.4209 142.0649 326° Northwest  Level FlightAware Approximate
06:51AM -22.3244 141.9939 326° Northwest  Level FlightAware Approximate
06:52AM -22.2277 141.9229 326° Northwest  Level FlightAware Approximate
06:53AM -22.1311 141.8520 326° Northwest  Level FlightAware Approximate
06:54AM -22.0344 141.7812 326° Northwest  Level FlightAware Approximate
06:55AM -21.9377 141.7106 326° Northwest  Level FlightAware Approximate
06:56AM -21.8410 141.6400 326° Northwest  Level FlightAware Approximate
06:57AM -21.7442 141.5695 326° Northwest  Level FlightAware Approximate
06:58AM -21.6474 141.4991 326° Northwest  Level FlightAware Approximate
06:59AM -21.5506 141.4288 326° Northwest  Level FlightAware Approximate
07:00AM -21.4537 141.3586 326° Northwest  Level FlightAware Approximate
07:01AM -21.3569 141.2885 326° Northwest  Level FlightAware Approximate
07:02AM -21.2599 141.2185 326° Northwest  Level FlightAware Approximate
07:03AM -21.1630 141.1485 326° Northwest  Level FlightAware Approximate
07:04AM -21.0660 141.0787 326° Northwest  Level FlightAware Approximate
07:05AM -20.9690 141.0090 326° Northwest  Level FlightAware Approximate
07:06AM -20.8720 140.9393 326° Northwest  Level FlightAware Approximate
07:07AM -20.7750 140.8698 326° Northwest  Level FlightAware Approximate
07:08AM -20.6779 140.8003 326° Northwest  Level FlightAware Approximate
07:09AM -20.5807 140.7309 326° Northwest  Level FlightAware Approximate
07:10AM -20.4836 140.6616 326° Northwest  Level FlightAware Approximate
07:11AM -20.3864 140.5924 326° Northwest  Level FlightAware Approximate
07:12AM -20.2892 140.5233 326° Northwest  Level FlightAware Approximate
07:13AM -20.1920 140.4543 326° Northwest  Level FlightAware Approximate
07:14AM -20.0956 140.3841 323° Northwest  Level FlightAware Approximate
07:15AM -20.0027 140.3086 323° Northwest  Level FlightAware Approximate
07:16AM -19.9099 140.2332 323° Northwest  Level FlightAware Approximate
07:17AM -19.8169 140.1579 323° Northwest  Level FlightAware Approximate
07:18AM -19.7240 140.0827 323° Northwest  Level FlightAware Approximate
07:19AM -19.6310 140.0076 323° Northwest  Level FlightAware Approximate
07:20AM -19.5380 139.9326 323° Northwest  Level FlightAware Approximate
07:21AM -19.4450 139.8576 323° Northwest  Level FlightAware Approximate
07:22AM -19.3519 139.7828 323° Northwest  Level FlightAware Approximate
07:23AM -19.2589 139.7080 323° Northwest  Level FlightAware Approximate
07:24AM -19.1657 139.6333 323° Northwest  Level FlightAware Approximate
07:25AM -19.0726 139.5587 323° Northwest  Level FlightAware Approximate
07:26AM -18.9794 139.4841 323° Northwest  Level FlightAware Approximate
07:27AM -18.8862 139.4097 323° Northwest  Level FlightAware Approximate
07:28AM -18.7929 139.3353 323° Northwest  Level FlightAware Approximate
07:29AM -18.6997 139.2611 323° Northwest  Level FlightAware Approximate
07:30AM -18.6064 139.1869 323° Northwest  Level FlightAware Approximate
07:31AM -18.5130 139.1128 323° Northwest  Level FlightAware Approximate
07:32AM -18.4197 139.0387 323° Northwest  Level FlightAware Approximate
07:33AM -18.3263 138.9648 323° Northwest  Level FlightAware Approximate
07:34AM -18.2329 138.8909 323° Northwest  Level FlightAware Approximate
07:35AM -18.1394 138.8171 323° Northwest  Level FlightAware Approximate
07:36AM -18.0459 138.7434 323° Northwest  Level FlightAware Approximate
07:37AM -17.9524 138.6698 323° Northwest  Level FlightAware Approximate
07:38AM -17.8589 138.5962 323° Northwest  Level FlightAware Approximate
07:39AM -17.7653 138.5227 323° Northwest  Level FlightAware Approximate
07:40AM -17.6717 138.4493 323° Northwest  Level FlightAware Approximate
07:41AM -17.5781 138.3760 323° Northwest  Level FlightAware Approximate
07:42AM -17.4845 138.3028 323° Northwest  Level FlightAware Approximate
07:43AM -17.3908 138.2296 323° Northwest  Level FlightAware Approximate
07:44AM -17.2971 138.1565 323° Northwest  Level FlightAware Approximate
07:45AM -17.2034 138.0835 323° Northwest  Level FlightAware Approximate
07:46AM -17.1096 138.0105 323° Northwest  Level FlightAware Approximate
07:47AM -17.0159 137.9377 323° Northwest  Level FlightAware Approximate
07:48AM -16.9221 137.8649 323° Northwest  Level FlightAware Approximate
07:49AM -16.8283 137.7921 323° Northwest  Level FlightAware Approximate
07:50AM -16.7344 137.7195 323° Northwest  Level FlightAware Approximate
07:51AM -16.6405 137.6469 323° Northwest  Level FlightAware Approximate
07:52AM -16.5466 137.5744 323° Northwest  Level FlightAware Approximate
07:53AM -16.4527 137.5019 324° Northwest  Level FlightAware Approximate
07:54AM -16.3587 137.4296 324° Northwest  Level FlightAware Approximate
07:55AM -16.2648 137.3573 324° Northwest  Level FlightAware Approximate
07:56AM -16.1708 137.2850 324° Northwest  Level FlightAware Approximate
07:57AM -16.0767 137.2128 324° Northwest  Level FlightAware Approximate
07:58AM -15.9827 137.1407 324° Northwest  Level FlightAware Approximate
07:59AM -15.8886 137.0687 324° Northwest  Level FlightAware Approximate
08:00AM -15.7945 136.9968 324° Northwest  Level FlightAware Approximate
08:01AM -15.7004 136.9249 324° Northwest  Level FlightAware Approximate
08:02AM -15.6062 136.8530 324° Northwest  Level FlightAware Approximate
08:03AM -15.5121 136.7813 324° Northwest  Level FlightAware Approximate
08:04AM -15.4179 136.7096 324° Northwest  Level FlightAware Approximate
08:05AM -15.3237 136.6379 324° Northwest  Level FlightAware Approximate
08:05AM -14.9666 136.3606 324° Northwest 447 514 38,100  Level Aus ATC (RADAR)
08:05AM -14.9085 136.3193 326° Northwest 433 498  Descending Aus ATC (RADAR)
08:06AM -14.8921 136.3076 326° Northwest 433 498 10,140 Level Aus ATC (RADAR)
08:08AM -14.6055 136.0983 325° Northwest 453 521 10,620 Level Aus ATC (RADAR)
08:09AM -14.5201 136.0304 322° Northwest 557 641 38,100 25,380 Climbing Aus ATC (RADAR)
08:10AM -14.4537 135.9791 323° Northwest 486 559 38,100  Level Aus ATC (RADAR)
08:10AM -14.3966 135.9360 324° Northwest 458 527 38,100  Level Aus ATC (RADAR)
08:11AM -14.3145 135.8714 323° Northwest 451 519 38,100  Level Aus ATC (RADAR)
08:12AM -14.2724 135.8394 324° Northwest 448 516 38,100  Level Aus ATC (RADAR)
08:12AM -14.2018 135.7977 330° Northwest 447 514  Descending Aus ATC (RADAR)
08:13AM -14.1143 135.7278 322° Northwest 501 577 38,100 33,120 Climbing Aus ATC (RADAR)
08:13AM -14.0826 135.6992 319° Northwest 484 557 38,100  Level Aus ATC (RADAR)
08:14AM -14.0229 135.6551 324° Northwest 465 535 38,100  Level Aus ATC (RADAR)
08:15AM -13.9450 135.5913 322° Northwest 430 495 38,100  Level Aus ATC (RADAR)
08:15AM -13.8854 135.5480 325° Northwest 430 495 38,100  Level Aus ATC (RADAR)
08:16AM -13.7992 135.4848 325° Northwest 444 511 38,100  Level Aus ATC (RADAR)
08:17AM -13.7526 135.4521 326° Northwest 456 525 38,100  Level Aus ATC (RADAR)
08:18AM -13.6507 135.3771 324° Northwest 446 513  Descending Aus ATC (RADAR)
08:18AM -13.5997 135.3389 324° Northwest 445 512 38,100 41,520 Climbing Aus ATC (RADAR)
08:19AM -13.5555 135.3075 325° Northwest 448 516 38,100  Level Aus ATC (RADAR)
08:19AM -13.4945 135.2632 325° Northwest 450 518 38,100  Level Aus ATC (RADAR)
08:20AM -13.4272 135.2109 323° Northwest 450 518 38,100  Level Aus ATC (RADAR)
08:20AM -13.3684 135.1684 325° Northwest 444 511 38,100  Level Aus ATC (RADAR)
08:21AM -13.2849 135.1066 324° Northwest 438 504 38,100  Level Aus ATC (RADAR)
08:22AM -13.2426 135.0764 325° Northwest 436 502 38,100  Level Aus ATC (RADAR)
08:22AM -13.1754 135.0263 324° Northwest 479 551 38,100  Level Aus ATC (RADAR)
08:23AM -13.0844 134.9596 324° Northwest 442 509 38,100  Level Aus ATC (RADAR)
08:24AM -13.0344 134.9224 324° Northwest 439 505 38,100  Level Aus ATC (RADAR)
08:24AM -12.9766 134.8796 324° Northwest 435 501 38,100  Level Aus ATC (RADAR)
08:25AM -12.9178 134.8359 324° Northwest 439 505 38,100  Level Aus ATC (RADAR)
08:25AM -12.8513 134.7867 324° Northwest 437 503 38,100  Level Aus ATC (RADAR)
08:26AM -12.7760 134.7308 324° Northwest 437 503 38,100  Level Aus ATC (RADAR)
08:27AM -12.7346 134.7000 324° Northwest 437 503 38,100  Level Aus ATC (RADAR)
08:27AM -12.6762 134.6573 325° Northwest 434 499 38,100 -120 Level Aus ATC (RADAR)
08:28AM -12.6259 134.6194 324° Northwest 445 512 38,000 -120 Descending FlightAware ADS-B (YPDN / DRW)
08:28AM -12.5665 134.5757 324° Northwest 446 513 38,000  Level FlightAware ADS-B (YPDN / DRW)
08:29AM -12.5173 134.5395 324° Northwest 446 513 38,000  Level FlightAware ADS-B (YPDN / DRW)
08:29AM -12.4659 134.5017 324° Northwest 445 512 38,000 60 Level FlightAware ADS-B (YPDN / DRW)
08:30AM -12.3927 134.4495 324° Northwest 433 498 38,100  Climbing Aus ATC (RADAR)
08:30AM -12.3683 134.4298 324° Northwest 446 513 38,000 -180 Descending FlightAware ADS-B (YPDN / DRW)
08:31AM -12.3166 134.3918 324° Northwest 446 513 38,000  Level FlightAware ADS-B (YPDN / DRW)
08:31AM -12.2647 134.3536 324° Northwest 446 513 38,000  Level FlightAware ADS-B (YPDN / DRW)
08:32AM -12.2141 134.3163 324° Northwest 446 513 38,000 60 Level FlightAware ADS-B (YPDN / DRW)
08:32AM -12.1570 134.2751 324° Northwest 437 503 38,100  Climbing Aus ATC (RADAR)
08:33AM -12.1138 134.2427 324° Northwest 446 513 38,000  Descending FlightAware ADS-B (YPDN / DRW)
08:34AM -12.0221 134.1764 324° Northwest 440 506 38,100 60 Climbing Aus ATC (RADAR)
08:34AM -11.9811 134.1456 324° Northwest 433 498 38,100 -120 Level Aus ATC (RADAR)
08:35AM -11.9143 134.0964 324° Northwest 446 513 38,000 -120 Descending FlightAware ADS-B (YPDN / DRW)
08:35AM -11.8612 134.0575 324° Northwest 446 513 38,000  Level FlightAware ADS-B (YPDN / DRW)
08:36AM -11.7796 133.9983 324° Northwest 438 504 38,000  Level Aus ATC (RADAR)
08:36AM -11.7638 133.9862 324° Northwest 447 514 38,000  Level FlightAware ADS-B (YPDN / DRW)
08:37AM -11.7112 133.9479 324° Northwest 446 513 38,000  Level FlightAware ADS-B (YPDN / DRW)
08:37AM -11.6640 133.9133 324° Northwest 446 513 38,000  Level FlightAware ADS-B (YPDN / DRW)
08:38AM -11.6114 133.8748 324° Northwest 447 514 38,000  Level FlightAware ADS-B (YPDN / DRW)
08:38AM -11.5608 133.8379 324° Northwest 447 514 38,000  Level FlightAware ADS-B (YPDN / DRW)
08:39AM -11.5089 133.8001 324° Northwest 448 516 38,000  Level FlightAware ADS-B (YPDN / DRW)
08:39AM -11.4436 133.7527 324° Northwest 434 499 38,000  Level Aus ATC (RADAR)
08:40AM -11.4151 133.7316 324° Northwest 448 516 38,000  Level FlightAware ADS-B (YPDN / DRW)
08:40AM -11.3573 133.6895 324° Northwest 449 517 38,000  Level FlightAware ADS-B (YPDN / DRW)
08:41AM -11.3066 133.6524 324° Northwest 449 517 38,000  Level FlightAware ADS-B (YPDN / DRW)
08:41AM -11.2556 133.6153 325° Northwest 450 518 38,000  Level FlightAware ADS-B (YPDN / DRW)
08:42AM -11.2058 133.5792 324° Northwest 450 518 38,000  Level FlightAware ADS-B (YPDN / DRW)
08:43AM -11.1206 133.5177 324° Northwest 441 507 38,000  Level Aus ATC (RADAR)
08:43AM -11.1050 133.5057 324° Northwest 451 519 38,000  Level FlightAware ADS-B (YPDN / DRW)
08:43AM -11.0606 133.4734 324° Northwest 451 519 38,000  Level FlightAware ADS-B (YPDN / DRW)
08:44AM -11.0022 133.4309 324° Northwest 451 519 38,000  Level FlightAware ADS-B (YPDN / DRW)
08:44AM -10.9525 133.3948 324° Northwest 451 519 38,000  Level FlightAware ADS-B (YPDN / DRW)
08:45AM -10.9005 133.3572 324° Northwest 452 520 38,000  Level FlightAware ADS-B (YPDN / DRW)
08:45AM -10.8485 133.3194 324° Northwest 452 520 38,000  Level FlightAware ADS-B (YPDN / DRW)
08:46AM -10.7980 133.2829 324° Northwest 452 520 38,000  Level FlightAware ADS-B (YPDN / DRW)
08:46AM -10.7462 133.2452 324° Northwest 452 520 38,000  Level FlightAware ADS-B (YPDN / DRW)
08:47AM -10.6963 133.2090 324° Northwest 452 520 38,000  Level FlightAware ADS-B (YPDN / DRW)
08:48AM -10.6021 133.1404 324° Northwest 435 501 38,000  Level Aus ATC (RADAR)
08:48AM -10.5936 133.1346 324° Northwest 452 520 38,000  Level FlightAware ADS-B (YPDN / DRW)
08:48AM -10.5413 133.0967 324° Northwest 453 521 38,000  Level FlightAware ADS-B (YPDN / DRW)
08:49AM -10.4901 133.0597 324° Northwest 454 522 38,000  Level FlightAware ADS-B (YPDN / DRW)
08:49AM -10.4390 133.0228 324° Northwest 455 524 38,000  Level FlightAware ADS-B (YPDN / DRW)
08:50AM -10.3873 132.9854 325° Northwest 456 525 38,000  Level FlightAware ADS-B (YPDN / DRW)
08:50AM -10.3362 132.9484 325° Northwest 456 525 38,000  Level FlightAware ADS-B (YPDN / DRW)
08:51AM -10.2865 132.9126 325° Northwest 457 526 38,000  Level FlightAware ADS-B (YPDN / DRW)
08:51AM -10.2328 132.8737 324° Northwest 457 526 38,000  Level FlightAware ADS-B (YPDN / DRW)
08:52AM -10.1805 132.8361 325° Northwest 457 526 38,000  Level FlightAware ADS-B (YPDN / DRW)
08:52AM -10.1290 132.7990 324° Northwest 457 526 38,000  Level FlightAware ADS-B (YPDN / DRW)
08:53AM -10.0764 132.7609 324° Northwest 458 527 38,000  Level FlightAware ADS-B (YPDN / DRW)
08:53AM -10.0252 132.7240 325° Northwest 458 527 38,000  Level FlightAware ADS-B (YPDN / DRW)
08:54AM -9.9746 132.6876 324° Northwest 459 528 38,000  Level FlightAware ADS-B (YPDN / DRW)
08:54AM -9.9209 132.6488 324° Northwest 459 528 38,000  Level FlightAware ADS-B (YPDN / DRW)
08:55AM -9.8701 132.6123 325° Northwest 460 529 38,000  Level FlightAware ADS-B (YPDN / DRW)
08:55AM -9.8328 132.5854 324° Northwest 461 531 38,000  Level FlightAware ADS-B (YPDN / DRW)
08:56AM -9.7336 132.5119 324° Northwest 447 514 38,000  Level Aus ATC (RADAR)
08:56AM -9.7157 132.5012 325° Northwest 462 532 38,000  Level FlightAware ADS-B (YPDN / DRW)
08:57AM -9.6546 132.4549 325° Northwest 448 516 38,000  Level Aus ATC (RADAR)
08:57AM -9.6121 132.4267 324° Northwest 464 534 38,000  Level FlightAware ADS-B (YPDN / DRW)
08:58AM -9.5508 132.3812 324° Northwest 440 506 38,000  Level Aus ATC (RADAR)
08:59AM -9.4370 132.2991 325° Northwest 446 513 38,000  Level Aus ATC (RADAR)
08:59AM -9.4131 132.2839 325° Northwest 463 533 38,000  Level FlightAware ADS-B (YPDN / DRW)
09:00AM -9.3457 132.2355 325° Northwest 463 533 38,000  Level FlightAware ADS-B (YPDN / DRW)
09:00AM -9.2794 132.1852 325° Northwest 447 514 38,000  Level Aus ATC (RADAR)
09:01AM -9.2546 132.1701 325° Northwest 462 532 38,000  Level FlightAware ADS-B (YPDN / DRW)
09:02AM -9.1408 132.0886 325° Northwest 461 531 38,000  Level FlightAware ADS-B (YPDN / DRW)
09:02AM -9.0833 132.0473 325° Northwest 462 532 38,000  Level FlightAware ADS-B (YPDN / DRW)
09:03AM -9.0306 132.0096 325° Northwest 461 531 38,000  Level FlightAware ADS-B (YPDN / DRW)
09:04AM -8.9403 131.9419 325° Northwest 430 495 38,000  Level Aus ATC (RADAR)
09:05AM -8.8094 131.8469 324° Northwest 443 510 38,000  Level Aus ATC (RADAR)
09:06AM -8.7136 131.7788 325° Northwest 442 509 38,000  Level Aus ATC (RADAR)
09:07AM -8.6004 131.6969 324° Northwest 443 510 38,000  Level Aus ATC (RADAR)
09:08AM -8.5398 131.6536 325° Northwest 442 509 38,000 -60 Level Aus ATC (RADAR)
09:10AM -8.3495 131.5201 325° Northwest  Level FlightAware Approximate
09:17AM -7.6795 131.0465 325° Northwest  Level FlightAware Approximate
09:18AM -7.5840 130.9786 325° Northwest  Level FlightAware Approximate
09:19AM -7.4885 130.9108 325° Northwest  Level FlightAware Approximate
09:20AM -7.3930 130.8430 325° Northwest  Level FlightAware Approximate
09:21AM -7.2974 130.7752 325° Northwest  Level FlightAware Approximate
09:22AM -7.2018 130.7075 325° Northwest  Level FlightAware Approximate
09:23AM -7.1063 130.6398 325° Northwest  Level FlightAware Approximate
09:24AM -7.0107 130.5721 325° Northwest  Level FlightAware Approximate
09:25AM -6.9151 130.5044 325° Northwest  Level FlightAware Approximate
09:26AM -6.8195 130.4368 325° Northwest  Level FlightAware Approximate
09:27AM -6.7239 130.3692 325° Northwest  Level FlightAware Approximate
09:28AM -6.6283 130.3016 325° Northwest  Level FlightAware Approximate
09:29AM -6.5327 130.2340 325° Northwest  Level FlightAware Approximate
09:30AM -6.4370 130.1665 325° Northwest  Level FlightAware Approximate
09:31AM -6.3414 130.0990 325° Northwest  Level FlightAware Approximate
09:32AM -6.2457 130.0316 325° Northwest  Level FlightAware Approximate
09:33AM -6.1501 129.9641 325° Northwest  Level FlightAware Approximate
09:34AM -6.0544 129.8967 325° Northwest  Level FlightAware Approximate
09:35AM -5.9587 129.8293 325° Northwest  Level FlightAware Approximate
09:36AM -5.8631 129.7619 325° Northwest  Level FlightAware Approximate
09:37AM -5.7674 129.6945 325° Northwest  Level FlightAware Approximate
09:38AM -5.6717 129.6272 325° Northwest  Level FlightAware Approximate
09:39AM -5.5760 129.5599 325° Northwest  Level FlightAware Approximate
09:40AM -5.4802 129.4926 325° Northwest  Level FlightAware Approximate
09:41AM -5.3845 129.4253 325° Northwest  Level FlightAware Approximate
09:42AM -5.2888 129.3581 325° Northwest  Level FlightAware Approximate
09:43AM -5.1930 129.2909 325° Northwest  Level FlightAware Approximate
09:44AM -5.0973 129.2237 325° Northwest  Level FlightAware Approximate
09:45AM -5.0016 129.1565 325° Northwest  Level FlightAware Approximate
09:46AM -4.9058 129.0893 325° Northwest  Level FlightAware Approximate
09:47AM -4.8100 129.0222 325° Northwest  Level FlightAware Approximate
09:48AM -4.7143 128.9550 325° Northwest  Level FlightAware Approximate
09:49AM -4.6185 128.8879 325° Northwest  Level FlightAware Approximate
09:50AM -4.5227 128.8208 325° Northwest  Level FlightAware Approximate
09:51AM -4.4269 128.7538 325° Northwest  Level FlightAware Approximate
09:52AM -4.3311 128.6867 325° Northwest  Level FlightAware Approximate
09:53AM -4.2353 128.6197 325° Northwest  Level FlightAware Approximate
09:54AM -4.1395 128.5527 325° Northwest  Level FlightAware Approximate
09:55AM -4.0437 128.4857 325° Northwest  Level FlightAware Approximate
09:56AM -3.9479 128.4187 325° Northwest  Level FlightAware Approximate
09:57AM -3.8520 128.3517 325° Northwest  Level FlightAware Approximate
09:58AM -3.7562 128.2847 325° Northwest  Level FlightAware Approximate
09:59AM -3.6604 128.2178 325° Northwest  Level FlightAware Approximate
10:00AM -3.5619 128.1550 330° Northwest  Level FlightAware Approximate
10:01AM -3.4611 128.0959 330° Northwest  Level FlightAware Approximate
10:02AM -3.3602 128.0368 330° Northwest  Level FlightAware Approximate
10:03AM -3.2594 127.9778 330° Northwest  Level FlightAware Approximate
10:04AM -3.1585 127.9187 330° Northwest  Level FlightAware Approximate
10:05AM -3.0577 127.8597 330° Northwest  Level FlightAware Approximate
10:06AM -2.9568 127.8007 330° Northwest  Level FlightAware Approximate
10:07AM -2.8559 127.7416 330° Northwest  Level FlightAware Approximate
10:08AM -2.7551 127.6826 330° Northwest  Level FlightAware Approximate
10:09AM -2.6542 127.6236 330° Northwest  Level FlightAware Approximate
10:10AM -2.5533 127.5646 330° Northwest  Level FlightAware Approximate
10:11AM -2.4525 127.5057 330° Northwest  Level FlightAware Approximate
10:12AM -2.3516 127.4467 330° Northwest  Level FlightAware Approximate
10:13AM -2.2507 127.3877 330° Northwest  Level FlightAware Approximate
10:14AM -2.1498 127.3288 330° Northwest  Level FlightAware Approximate
10:15AM -2.0489 127.2698 330° Northwest  Level FlightAware Approximate
10:16AM -1.9481 127.2109 330° Northwest  Level FlightAware Approximate
10:17AM -1.8472 127.1520 330° Northwest  Level FlightAware Approximate
10:18AM -1.7463 127.0930 330° Northwest  Level FlightAware Approximate
10:19AM -1.6454 127.0341 330° Northwest  Level FlightAware Approximate
10:20AM -1.5445 126.9752 330° Northwest  Level FlightAware Approximate
10:21AM -1.4436 126.9163 330° Northwest  Level FlightAware Approximate
10:22AM -1.3427 126.8574 330° Northwest  Level FlightAware Approximate
10:23AM -1.2418 126.7985 330° Northwest  Level FlightAware Approximate
10:24AM -1.1409 126.7396 330° Northwest  Level FlightAware Approximate
10:25AM -1.0400 126.6807 330° Northwest  Level FlightAware Approximate
10:26AM -0.9391 126.6219 330° Northwest  Level FlightAware Approximate
10:27AM -0.8382 126.5630 330° Northwest  Level FlightAware Approximate
10:28AM -0.7373 126.5041 330° Northwest  Level FlightAware Approximate
10:29AM -0.6364 126.4452 330° Northwest  Level FlightAware Approximate
10:30AM -0.5355 126.3864 330° Northwest  Level FlightAware Approximate
10:31AM -0.4346 126.3275 330° Northwest  Level FlightAware Approximate
10:32AM -0.3337 126.2686 330° Northwest  Level FlightAware Approximate
10:33AM -0.2328 126.2097 330° Northwest  Level FlightAware Approximate
10:34AM -0.1319 126.1509 330° Northwest  Level FlightAware Approximate
10:35AM -0.0310 126.0920 330° Northwest  Level FlightAware Approximate
10:36AM 0.0699 126.0331 330° Northwest  Level FlightAware Approximate
10:37AM 0.1708 125.9743 330° Northwest  Level FlightAware Approximate
10:38AM 0.2718 125.9154 330° Northwest  Level FlightAware Approximate
10:39AM 0.3727 125.8566 330° Northwest  Level FlightAware Approximate
10:40AM 0.4736 125.7977 330° Northwest  Level FlightAware Approximate
10:41AM 0.5745 125.7388 330° Northwest  Level FlightAware Approximate
10:42AM 0.6754 125.6799 330° Northwest  Level FlightAware Approximate
10:43AM 0.7763 125.6211 330° Northwest  Level FlightAware Approximate
10:44AM 0.8772 125.5622 330° Northwest  Level FlightAware Approximate
10:45AM 0.9781 125.5033 330° Northwest  Level FlightAware Approximate
10:46AM 1.0790 125.4444 330° Northwest  Level FlightAware Approximate
10:47AM 1.1799 125.3855 330° Northwest  Level FlightAware Approximate
10:48AM 1.2808 125.3266 330° Northwest  Level FlightAware Approximate
10:49AM 1.3817 125.2678 330° Northwest  Level FlightAware Approximate
10:50AM 1.4826 125.2088 330° Northwest  Level FlightAware Approximate
10:51AM 1.5835 125.1499 330° Northwest  Level FlightAware Approximate
10:52AM 1.6844 125.0910 330° Northwest  Level FlightAware Approximate
10:53AM 1.7852 125.0321 330° Northwest  Level FlightAware Approximate
10:54AM 1.8861 124.9732 330° Northwest  Level FlightAware Approximate
10:55AM 1.9870 124.9143 330° Northwest  Level FlightAware Approximate
10:56AM 2.0877 124.8550 329° Northwest  Level FlightAware Approximate
10:57AM 2.1882 124.7954 329° Northwest  Level FlightAware Approximate
10:58AM 2.2887 124.7358 329° Northwest  Level FlightAware Approximate
10:59AM 2.3892 124.6761 329° Northwest  Level FlightAware Approximate
11:00AM 2.4897 124.6165 329° Northwest  Level FlightAware Approximate
11:01AM 2.5901 124.5568 329° Northwest  Level FlightAware Approximate
11:02AM 2.6906 124.4971 329° Northwest  Level FlightAware Approximate
11:03AM 2.7911 124.4375 329° Northwest  Level FlightAware Approximate
11:04AM 2.8915 124.3778 329° Northwest  Level FlightAware Approximate
11:05AM 2.9920 124.3181 329° Northwest  Level FlightAware Approximate
11:06AM 3.0925 124.2584 329° Northwest  Level FlightAware Approximate
11:07AM 3.1929 124.1987 329° Northwest  Level FlightAware Approximate
11:08AM 3.2934 124.1389 329° Northwest  Level FlightAware Approximate
11:09AM 3.3938 124.0792 329° Northwest  Level FlightAware Approximate
11:10AM 3.4943 124.0194 329° Northwest  Level FlightAware Approximate
11:11AM 3.5947 123.9597 329° Northwest  Level FlightAware Approximate
11:12AM 3.6951 123.8999 329° Northwest  Level FlightAware Approximate
11:13AM 3.7956 123.8401 329° Northwest  Level FlightAware Approximate
11:14AM 3.8960 123.7803 329° Northwest  Level FlightAware Approximate
11:15AM 3.9964 123.7205 329° Northwest  Level FlightAware Approximate
11:16AM 4.0981 123.6628 331° Northwest  Level FlightAware Approximate
11:17AM 4.1999 123.6052 331° Northwest  Level FlightAware Approximate
11:18AM 4.3016 123.5477 331° Northwest  Level FlightAware Approximate
11:19AM 4.4033 123.4901 331° Northwest  Level FlightAware Approximate
11:20AM 4.5051 123.4324 331° Northwest  Level FlightAware Approximate
11:21AM 4.6068 123.3748 331° Northwest  Level FlightAware Approximate
11:22AM 4.7085 123.3172 331° Northwest  Level FlightAware Approximate
11:23AM 4.8102 123.2595 331° Northwest  Level FlightAware Approximate
11:24AM 4.9119 123.2018 331° Northwest  Level FlightAware Approximate
11:25AM 5.0136 123.1441 331° Northwest  Level FlightAware Approximate
11:26AM 5.1153 123.0864 331° Northwest  Level FlightAware Approximate
11:27AM 5.2170 123.0287 331° Northwest  Level FlightAware Approximate
11:28AM 5.3187 122.9709 331° Northwest  Level FlightAware Approximate
11:29AM 5.4203 122.9131 331° Northwest  Level FlightAware Approximate
11:30AM 5.5220 122.8553 330° Northwest  Level FlightAware Approximate
11:31AM 5.6237 122.7975 330° Northwest  Level FlightAware Approximate
11:32AM 5.7253 122.7397 330° Northwest  Level FlightAware Approximate
11:33AM 5.8270 122.6818 330° Northwest  Level FlightAware Approximate
11:34AM 5.9286 122.6240 330° Northwest  Level FlightAware Approximate
11:35AM 6.0303 122.5661 330° Northwest  Level FlightAware Approximate
11:36AM 6.1319 122.5081 330° Northwest  Level FlightAware Approximate
11:37AM 6.2336 122.4502 330° Northwest  Level FlightAware Approximate
11:38AM 6.3352 122.3923 330° Northwest  Level FlightAware Approximate
11:39AM 6.4368 122.3343 330° Northwest  Level FlightAware Approximate
11:40AM 6.5384 122.2763 330° Northwest  Level FlightAware Approximate
11:41AM 6.6400 122.2182 330° Northwest  Level FlightAware Approximate
11:42AM 6.7416 122.1602 330° Northwest  Level FlightAware Approximate
11:43AM 6.8432 122.1021 330° Northwest  Level FlightAware Approximate
11:44AM 6.9455 122.0453 334° Northwest  Level FlightAware Approximate
11:45AM 7.0505 121.9936 334° Northwest  Level FlightAware Approximate
11:46AM 7.1554 121.9420 334° Northwest  Level FlightAware Approximate
11:47AM 7.2604 121.8903 334° Northwest  Level FlightAware Approximate
11:48AM 7.3654 121.8387 334° Northwest  Level FlightAware Approximate
11:49AM 7.4704 121.7870 334° Northwest  Level FlightAware Approximate
11:50AM 7.5754 121.7353 334° Northwest  Level FlightAware Approximate
11:51AM 7.6803 121.6836 334° Northwest  Level FlightAware Approximate
11:52AM 7.7853 121.6319 334° Northwest  Level FlightAware Approximate
11:53AM 7.8903 121.5801 334° Northwest  Level FlightAware Approximate
11:54AM 7.9953 121.5283 334° Northwest  Level FlightAware Approximate
11:55AM 8.1002 121.4765 334° Northwest  Level FlightAware Approximate
11:56AM 8.2051 121.4247 334° Northwest  Level FlightAware Approximate
11:57AM 8.3101 121.3728 334° Northwest  Level FlightAware Approximate
11:58AM 8.4150 121.3209 334° Northwest  Level FlightAware Approximate
11:59AM 8.5199 121.2690 334° Northwest  Level FlightAware Approximate
12:00PM 8.6249 121.2170 334° Northwest  Level FlightAware Approximate
12:01PM 8.7298 121.1651 334° Northwest  Level FlightAware Approximate
12:02PM 8.8347 121.1131 334° Northwest  Level FlightAware Approximate
12:03PM 8.9396 121.0610 334° Northwest  Level FlightAware Approximate
12:04PM 9.0445 121.0089 334° Northwest  Level FlightAware Approximate
12:05PM 9.1494 120.9568 334° Northwest  Level FlightAware Approximate
12:06PM 9.2542 120.9047 334° Northwest  Level FlightAware Approximate
12:07PM 9.3591 120.8525 334° Northwest  Level FlightAware Approximate
12:08PM 9.4640 120.8003 334° Northwest  Level FlightAware Approximate
12:09PM 9.5688 120.7481 334° Northwest  Level FlightAware Approximate
12:10PM 9.6737 120.6959 334° Northwest  Level FlightAware Approximate
12:11PM 9.7785 120.6436 334° Northwest  Level FlightAware Approximate
12:12PM 9.8833 120.5912 334° Northwest  Level FlightAware Approximate
12:13PM 9.9881 120.5389 334° Northwest  Level FlightAware Approximate
12:14PM 10.0930 120.4865 334° Northwest  Level FlightAware Approximate
12:15PM 10.1978 120.4341 334° Northwest  Level FlightAware Approximate
12:16PM 10.3025 120.3815 334° Northwest  Level FlightAware Approximate
12:17PM 10.4072 120.3289 334° Northwest  Level FlightAware Approximate
12:18PM 10.5119 120.2762 334° Northwest  Level FlightAware Approximate
12:19PM 10.6166 120.2235 334° Northwest  Level FlightAware Approximate
12:20PM 10.7213 120.1707 334° Northwest  Level FlightAware Approximate
12:21PM 10.8260 120.1179 334° Northwest  Level FlightAware Approximate
12:22PM 10.9307 120.0651 334° Northwest  Level FlightAware Approximate
12:23PM 11.0353 120.0122 334° Northwest  Level FlightAware Approximate
12:24PM 11.1399 119.9593 334° Northwest  Level FlightAware Approximate
12:25PM 11.2446 119.9063 334° Northwest  Level FlightAware Approximate
12:26PM 11.3492 119.8532 334° Northwest  Level FlightAware Approximate
12:27PM 11.4537 119.8001 334° Northwest  Level FlightAware Approximate
12:28PM 11.5583 119.7470 334° Northwest  Level FlightAware Approximate
12:29PM 11.6629 119.6938 334° Northwest  Level FlightAware Approximate
12:30PM 11.7675 119.6407 334° Northwest  Level FlightAware Approximate
12:31PM 11.8721 119.5876 334° Northwest  Level FlightAware Approximate
12:32PM 11.9768 119.5345 334° Northwest  Level FlightAware Approximate
12:33PM 12.0814 119.4813 334° Northwest  Level FlightAware Approximate
12:34PM 12.1860 119.4281 334° Northwest  Level FlightAware Approximate
12:35PM 12.2906 119.3749 334° Northwest  Level FlightAware Approximate
12:36PM 12.3951 119.3216 334° Northwest  Level FlightAware Approximate
12:37PM 12.4997 119.2682 334° Northwest  Level FlightAware Approximate
12:38PM 12.6043 119.2149 334° Northwest  Level FlightAware Approximate
12:39PM 12.7088 119.1614 334° Northwest  Level FlightAware Approximate
12:40PM 12.8133 119.1080 333° Northwest  Level FlightAware Approximate
12:41PM 12.9179 119.0545 333° Northwest  Level FlightAware Approximate
12:42PM 13.0224 119.0009 333° Northwest  Level FlightAware Approximate
12:43PM 13.1269 118.9473 333° Northwest  Level FlightAware Approximate
12:44PM 13.2314 118.8936 333° Northwest  Level FlightAware Approximate
12:45PM 13.3358 118.8399 333° Northwest  Level FlightAware Approximate
12:46PM 13.4403 118.7862 333° Northwest  Level FlightAware Approximate
12:47PM 13.5448 118.7324 333° Northwest  Level FlightAware Approximate
12:48PM 13.6492 118.6786 333° Northwest  Level FlightAware Approximate
12:49PM 13.7536 118.6247 333° Northwest  Level FlightAware Approximate
12:50PM 13.8581 118.5707 333° Northwest  Level FlightAware Approximate
12:51PM 13.9625 118.5168 333° Northwest  Level FlightAware Approximate
12:52PM 14.0669 118.4627 333° Northwest  Level FlightAware Approximate
12:53PM 14.1713 118.4086 333° Northwest  Level FlightAware Approximate
12:54PM 14.2756 118.3545 333° Northwest  Level FlightAware Approximate
12:55PM 14.3800 118.3003 333° Northwest  Level FlightAware Approximate
12:56PM 14.4844 118.2461 333° Northwest  Level FlightAware Approximate
12:57PM 14.5887 118.1918 333° Northwest  Level FlightAware Approximate
12:58PM 14.6930 118.1375 333° Northwest  Level FlightAware Approximate
12:59PM 14.7973 118.0831 333° Northwest  Level FlightAware Approximate
01:00PM 14.9016 118.0286 333° Northwest  Level FlightAware Approximate
01:01PM 15.0059 117.9742 333° Northwest  Level FlightAware Approximate
01:02PM 15.1102 117.9196 333° Northwest  Level FlightAware Approximate
01:03PM 15.2144 117.8650 333° Northwest  Level FlightAware Approximate
01:04PM 15.3187 117.8103 333° Northwest  Level FlightAware Approximate
01:05PM 15.4229 117.7556 333° Northwest  Level FlightAware Approximate
01:06PM 15.5271 117.7009 333° Northwest  Level FlightAware Approximate
01:07PM 15.6313 117.6460 333° Northwest  Level FlightAware Approximate
01:08PM 15.7355 117.5912 333° Northwest  Level FlightAware Approximate
01:09PM 15.8397 117.5362 333° Northwest  Level FlightAware Approximate
01:10PM 15.9439 117.4813 333° Northwest  Level FlightAware Approximate
01:10PM 19.5179 115.3532 323° Northwest 498 573 35,700  Level FlightAware ADS-B (VHSK)
01:10PM 19.5655 115.3148 323° Northwest 500 575 35,300 -960 Descending FlightAware ADS-B (VHSK)
01:11PM 19.6435 115.2521 323° Northwest 505 581 34,600 -1,020 Descending FlightAware ADS-B (VHSK)
01:11PM 19.7012 115.2055 323° Northwest 509 586 34,100 -480 Descending FlightAware ADS-B (VHSK)
01:12PM 19.7954 115.1293 323° Northwest 505 581 34,000 -120 Descending FlightAware ADS-B (VHSK)
01:13PM 19.8534 115.0824 323° Northwest 505 581 34,000  Level FlightAware ADS-B (VHSK)
01:13PM 19.9085 115.0378 323° Northwest 505 581 34,000  Level FlightAware ADS-B (VHSK)
01:14PM 19.9634 114.9933 323° Northwest 505 581 34,000  Level FlightAware ADS-B (VHSK)
01:14PM 20.0120 114.9536 323° Northwest 504 580 34,000  Level FlightAware ADS-B (VHSK)
01:15PM 20.0753 114.9021 323° Northwest 504 580 34,000 -240 Level FlightAware ADS-B (VHSK)
01:15PM 20.1413 114.8485 323° Northwest 502 578 33,800 -660 Descending FlightAware ADS-B (VHSK)
01:16PM 20.1966 114.8033 323° Northwest 487 560 33,300 -1,200 Descending FlightAware ADS-B (VHSK)
01:16PM 20.2484 114.7609 323° Northwest 481 554 32,600 -1,440 Descending FlightAware ADS-B (VHSK)
01:17PM 20.2981 114.7202 323° Northwest 481 554 31,900 -2,160 Descending FlightAware ADS-B (VHSK)
01:17PM 20.3210 114.7015 323° Northwest 480 552 30,100 -3,480 Descending FlightAware ADS-B (VHSK)
01:18PM 20.4372 114.6070 323° Northwest 492 566 27,500 -3,600 Descending FlightAware ADS-B (VHSK)
01:19PM 20.5051 114.5516 323° Northwest 474 545 25,600 -2,880 Descending FlightAware ADS-B (VHSK)
01:19PM 20.5567 114.5090 322° Northwest 460 529 24,300 -1,380 Descending FlightAware ADS-B (VHSK)
01:22PM 20.7216 114.2850 308° West  Level FlightAware Approximate
01:23PM 20.7937 114.1867 308° West  Level FlightAware Approximate
01:24PM 20.8658 114.0883 308° West  Level FlightAware Approximate
01:25PM 20.9378 113.9899 308° West  Level FlightAware Approximate
01:26PM 21.0097 113.8913 308° West  Level FlightAware Approximate
01:27PM 21.1264 113.8857 282° West  Level Estimated
01:28PM 21.1297 113.7605 272° West  Level FlightAware Approximate
01:29PM 21.2194 113.6658 304° West 335 386 11,000  Level FlightAware ADS-B (VHSK)
01:32PM 21.3349 113.4842 304° West 335 386 11,000  Level FlightAware ADS-B (VHSK)
01:33PM 21.3828 113.4086 304° West 303 349 11,000 -120 Level FlightAware ADS-B (VHSK)
01:34PM 21.4374 113.3228 304° West 312 359 10,800 -60 Descending FlightAware ADS-B (VHSK)
01:36PM 21.5454 113.1530 303° West 280 322 10,800  Level FlightAware ADS-B (VHSK)
01:37PM 21.5641 113.1225 304° West 282 325 10,800  Level FlightAware ADS-B (VHSK)
01:37PM 21.5931 113.0781 317° Northwest 287 330 10,800  Level FlightAware ADS-B (VHSK)
01:38PM 21.6486 113.0322 323° Northwest 286 329 10,800  Level FlightAware ADS-B (VHSK)
01:41PM 21.8581 113.1961 36° Northeast  Level Estimated
01:42PM 21.9526 113.2701 36° Northeast  Level Estimated
01:43PM 22.0470 113.3443 36° Northeast  Level Estimated
01:44PM 22.1414 113.4185 36° Northeast  Level Estimated
01:45PM 22.2358 113.4929 36° Northeast  Level Estimated
01:46PM 22.3301 113.5674 36° Northeast  Level Estimated
01:47PM 22.4244 113.6419 36° Northeast  Level Estimated
01:48PM 22.5187 113.7166 36° Northeast  Level Estimated
01:49PM 22.6129 113.7914 36° Northeast  Level Estimated
01:50PM 22.6395 113.8124 36° Northeast  Level Estimated
01:51PM 22.6395 113.8124 North  Level Estimated
01:52PM 22.6395 113.8124 North  Level Estimated
01:53PM 22.6395 113.8124 North  Level Estimated
01:54PM 22.6395 113.8124 North  Level Estimated
01:55PM 22.6395 113.8124 North  Level Estimated
01:56PM 22.6395 113.8124 North  Level Estimated
01:57PM 22.6395 113.8124 North  Level Estimated
01:58PM 22.6395 113.8124 North  Level Estimated
01:59PM 22.6395 113.8124 North  Level Estimated
02:00PM 22.6395 113.8124 North  Level Estimated
02:01PM 22.6395 113.8124 North  Level Estimated
02:02PM 22.6395 113.8124 North  Level Estimated
02:03PM 22.6395 113.8124 North  Level Estimated
02:04PM 22.6395 113.8124 North  Level Estimated
02:05PM 22.6395 113.8124 North  Level Estimated
02:06PM 22.6395 113.8124 North  Level Estimated
02:07PM 22.6395 113.8124 North  Level Estimated
02:08PM 22.6395 113.8124 North  Level Estimated
02:09PM 22.6395 113.8124 North  Level Estimated
02:10PM 22.6395 113.8124 North  Level Estimated
02:11PM 22.6395 113.8124 North  Level Estimated
02:12PM 22.6395 113.8124 North  Level Estimated
02:13PM 22.6395 113.8124 North  Level Estimated
02:14PM 22.6395 113.8124 North  Level Estimated
02:15PM 22.6395 113.8124 North  Level Estimated
02:16PM 22.6395 113.8124 North  Level Estimated
02:17PM 22.6395 113.8124 North  Level Estimated
02:18PM 22.6395 113.8124 North  Level Estimated
02:19PM 22.6395 113.8124 North  Level Estimated
02:20PM 22.6395 113.8124 North  Level Estimated
02:21PM 22.6395 113.8124 North  Level Estimated
02:22PM 22.6395 113.8124 North  Level Estimated
02:23PM 22.6395 113.8124 North  Level Estimated
02:24PM 22.6395 113.8124 North  Level Estimated